Waldorf, Maryland
Current Conditions -  °F | °C
As of 2:55 AM on Monday 22 Dec 2014 (Local Time) from KADW Reporting Station
Few Clouds Few Clouds  
Wind Chill: 20°   Ceiling: Unl
Heat Index: 27°   Visibility: 10mi
Dew Point: 23°   Wind: 6mph
Humidity: 85%   Direction: 40°NE
Pressure: 30.3"   Gusts: NA
Location:  38.62°N, 76.9°W
Report Text: KADW 220755Z 04005KT 10SM FEW250 M03/M05 A3030 RMK AO2A SLP264 T10281050
Loading
Personal Weather Stations






























Interactive Weather Map New forecast layout! Learn more

10-Day Weather Forecast

Advertisements
Track Severe Weather on mobile